sensor_id;sensor_type;location;lat;lon;timestamp;temperature;humidity
16700;DHT22;8466;52.286;21.124;2023-10-08T00:01:10;10.70;99.90
16700;DHT22;8466;52.286;21.124;2023-10-08T00:03:42;10.70;99.90
16700;DHT22;8466;52.286;21.124;2023-10-08T00:06:17;10.70;99.90
16700;DHT22;8466;52.286;21.124;2023-10-08T00:08:49;10.60;99.90
16700;DHT22;8466;52.286;21.124;2023-10-08T00:11:18;10.70;99.90
16700;DHT22;8466;52.286;21.124;2023-10-08T00:13:50;10.60;99.90
16700;DHT22;8466;52.286;21.124;2023-10-08T00:16:23;10.60;99.90
16700;DHT22;8466;52.286;21.124;2023-10-08T00:18:53;10.60;99.90
16700;DHT22;8466;52.286;21.124;2023-10-08T00:21:26;10.60;99.90
16700;DHT22;8466;52.286;21.124;2023-10-08T00:23:57;10.60;99.90
16700;DHT22;8466;52.286;21.124;2023-10-08T00:26:27;10.60;99.90
16700;DHT22;8466;52.286;21.124;2023-10-08T00:29:00;10.60;99.90
16700;DHT22;8466;52.286;21.124;2023-10-08T00:31:34;10.60;99.90
16700;DHT22;8466;52.286;21.124;2023-10-08T00:34:08;10.50;99.90
16700;DHT22;8466;52.286;21.124;2023-10-08T00:36:39;10.50;99.90
16700;DHT22;8466;52.286;21.124;2023-10-08T00:39:11;10.50;99.90
16700;DHT22;8466;52.286;21.124;2023-10-08T00:41:42;10.50;99.90
16700;DHT22;8466;52.286;21.124;2023-10-08T00:44:13;10.50;99.90
16700;DHT22;8466;52.286;21.124;2023-10-08T00:46:43;10.50;99.90
16700;DHT22;8466;52.286;21.124;2023-10-08T00:49:17;10.40;99.90
16700;DHT22;8466;52.286;21.124;2023-10-08T00:51:56;10.40;99.90
16700;DHT22;8466;52.286;21.124;2023-10-08T00:54:47;10.40;99.90
16700;DHT22;8466;52.286;21.124;2023-10-08T00:57:26;10.40;99.90
16700;DHT22;8466;52.286;21.124;2023-10-08T00:59:57;10.40;99.90
16700;DHT22;8466;52.286;21.124;2023-10-08T01:02:27;10.40;99.90
16700;DHT22;8466;52.286;21.124;2023-10-08T01:05:10;10.40;99.90
16700;DHT22;8466;52.286;21.124;2023-10-08T01:07:40;10.40;99.90
16700;DHT22;8466;52.286;21.124;2023-10-08T01:10:13;10.40;99.90
16700;DHT22;8466;52.286;21.124;2023-10-08T01:12:47;10.30;99.90
16700;DHT22;8466;52.286;21.124;2023-10-08T01:15:32;10.30;99.90
16700;DHT22;8466;52.286;21.124;2023-10-08T01:18:03;10.50;99.90
16700;DHT22;8466;52.286;21.124;2023-10-08T01:20:36;10.40;99.90
16700;DHT22;8466;52.286;21.124;2023-10-08T01:23:08;10.40;99.90
16700;DHT22;8466;52.286;21.124;2023-10-08T01:25:41;10.40;99.90
16700;DHT22;8466;52.286;21.124;2023-10-08T01:28:10;10.40;99.90
16700;DHT22;8466;52.286;21.124;2023-10-08T01:30:44;10.30;99.90
16700;DHT22;8466;52.286;21.124;2023-10-08T01:33:14;10.30;99.90
16700;DHT22;8466;52.286;21.124;2023-10-08T01:35:48;10.30;99.90
16700;DHT22;8466;52.286;21.124;2023-10-08T01:38:18;10.30;99.90
16700;DHT22;8466;52.286;21.124;2023-10-08T01:40:51;10.30;99.90
16700;DHT22;8466;52.286;21.124;2023-10-08T01:43:19;10.30;99.90
16700;DHT22;8466;52.286;21.124;2023-10-08T01:45:48;10.30;99.90
16700;DHT22;8466;52.286;21.124;2023-10-08T01:48:19;10.40;99.90
16700;DHT22;8466;52.286;21.124;2023-10-08T01:50:55;10.40;99.90
16700;DHT22;8466;52.286;21.124;2023-10-08T01:53:29;10.30;99.90
16700;DHT22;8466;52.286;21.124;2023-10-08T01:55:59;10.30;99.90
16700;DHT22;8466;52.286;21.124;2023-10-08T01:58:28;10.30;99.90
16700;DHT22;8466;52.286;21.124;2023-10-08T02:00:57;10.30;99.90
16700;DHT22;8466;52.286;21.124;2023-10-08T02:03:27;10.30;99.90
16700;DHT22;8466;52.286;21.124;2023-10-08T02:05:56;10.40;99.90
16700;DHT22;8466;52.286;21.124;2023-10-08T02:08:27;10.40;99.90
16700;DHT22;8466;52.286;21.124;2023-10-08T02:10:58;10.30;99.90
16700;DHT22;8466;52.286;21.124;2023-10-08T02:13:29;10.30;99.90
16700;DHT22;8466;52.286;21.124;2023-10-08T02:15:58;10.30;99.90
16700;DHT22;8466;52.286;21.124;2023-10-08T02:18:27;10.20;99.90
16700;DHT22;8466;52.286;21.124;2023-10-08T02:20:58;10.30;99.90
16700;DHT22;8466;52.286;21.124;2023-10-08T02:23:27;10.30;99.90
16700;DHT22;8466;52.286;21.124;2023-10-08T02:25:58;10.30;99.90
16700;DHT22;8466;52.286;21.124;2023-10-08T02:28:26;10.30;99.90
16700;DHT22;8466;52.286;21.124;2023-10-08T02:30:56;10.20;99.90
16700;DHT22;8466;52.286;21.124;2023-10-08T02:33:26;10.20;99.90
16700;DHT22;8466;52.286;21.124;2023-10-08T02:35:54;10.20;99.90
16700;DHT22;8466;52.286;21.124;2023-10-08T02:38:23;10.30;99.90
16700;DHT22;8466;52.286;21.124;2023-10-08T02:40:52;10.40;99.90
16700;DHT22;8466;52.286;21.124;2023-10-08T02:43:25;10.30;99.90
16700;DHT22;8466;52.286;21.124;2023-10-08T02:45:57;10.40;99.90
16700;DHT22;8466;52.286;21.124;2023-10-08T02:48:27;10.30;99.90
16700;DHT22;8466;52.286;21.124;2023-10-08T02:50:57;10.30;99.90
16700;DHT22;8466;52.286;21.124;2023-10-08T02:53:34;10.30;99.90
16700;DHT22;8466;52.286;21.124;2023-10-08T02:56:03;10.40;99.90
16700;DHT22;8466;52.286;21.124;2023-10-08T02:58:41;10.40;99.90
16700;DHT22;8466;52.286;21.124;2023-10-08T03:01:11;10.30;99.90
16700;DHT22;8466;52.286;21.124;2023-10-08T03:03:41;10.30;99.90
16700;DHT22;8466;52.286;21.124;2023-10-08T03:06:10;10.30;99.90
16700;DHT22;8466;52.286;21.124;2023-10-08T03:08:42;10.30;99.90
16700;DHT22;8466;52.286;21.124;2023-10-08T03:11:11;10.30;99.90
16700;DHT22;8466;52.286;21.124;2023-10-08T03:13:46;10.30;99.90
16700;DHT22;8466;52.286;21.124;2023-10-08T03:16:19;10.40;99.90
16700;DHT22;8466;52.286;21.124;2023-10-08T03:18:55;10.30;99.90
16700;DHT22;8466;52.286;21.124;2023-10-08T03:21:24;10.40;99.90
16700;DHT22;8466;52.286;21.124;2023-10-08T03:24:07;10.40;99.90
16700;DHT22;8466;52.286;21.124;2023-10-08T03:26:40;10.50;99.90
16700;DHT22;8466;52.286;21.124;2023-10-08T03:29:13;10.50;99.90
16700;DHT22;8466;52.286;21.124;2023-10-08T03:31:43;10.50;99.90
16700;DHT22;8466;52.286;21.124;2023-10-08T03:34:19;10.30;99.90
16700;DHT22;8466;52.286;21.124;2023-10-08T03:36:48;10.20;99.90
16700;DHT22;8466;52.286;21.124;2023-10-08T03:39:18;10.20;99.90
16700;DHT22;8466;52.286;21.124;2023-10-08T03:41:47;10.20;99.90
16700;DHT22;8466;52.286;21.124;2023-10-08T03:44:28;10.20;99.90
16700;DHT22;8466;52.286;21.124;2023-10-08T03:46:57;10.30;99.90
16700;DHT22;8466;52.286;21.124;2023-10-08T03:49:37;10.30;99.90
16700;DHT22;8466;52.286;21.124;2023-10-08T03:52:13;10.40;99.90
16700;DHT22;8466;52.286;21.124;2023-10-08T03:54:42;10.30;99.90
16700;DHT22;8466;52.286;21.124;2023-10-08T03:57:16;10.20;99.90
16700;DHT22;8466;52.286;21.124;2023-10-08T03:59:54;10.20;99.90
16700;DHT22;8466;52.286;21.124;2023-10-08T04:02:26;10.20;99.90
16700;DHT22;8466;52.286;21.124;2023-10-08T04:05:08;10.10;99.90
16700;DHT22;8466;52.286;21.124;2023-10-08T04:07:47;10.10;99.90
16700;DHT22;8466;52.286;21.124;2023-10-08T04:10:32;10.00;99.90
16700;DHT22;8466;52.286;21.124;2023-10-08T04:13:27;9.80;99.90
16700;DHT22;8466;52.286;21.124;2023-10-08T04:15:59;9.70;99.90
16700;DHT22;8466;52.286;21.124;2023-10-08T04:18:32;9.50;99.90
16700;DHT22;8466;52.286;21.124;2023-10-08T04:21:07;9.70;99.90
16700;DHT22;8466;52.286;21.124;2023-10-08T04:23:40;9.80;99.90
16700;DHT22;8466;52.286;21.124;2023-10-08T04:26:12;9.70;99.90
16700;DHT22;8466;52.286;21.124;2023-10-08T04:28:40;9.70;99.90
16700;DHT22;8466;52.286;21.124;2023-10-08T04:31:10;9.60;99.90
16700;DHT22;8466;52.286;21.124;2023-10-08T04:33:44;9.60;99.90
16700;DHT22;8466;52.286;21.124;2023-10-08T04:36:14;9.50;99.90
16700;DHT22;8466;52.286;21.124;2023-10-08T04:38:45;9.50;99.90
16700;DHT22;8466;52.286;21.124;2023-10-08T04:41:15;9.40;99.90
16700;DHT22;8466;52.286;21.124;2023-10-08T04:43:46;9.30;99.90
16700;DHT22;8466;52.286;21.124;2023-10-08T04:46:18;9.20;99.90
16700;DHT22;8466;52.286;21.124;2023-10-08T04:49:01;9.10;99.90
16700;DHT22;8466;52.286;21.124;2023-10-08T04:51:37;8.90;99.90
16700;DHT22;8466;52.286;21.124;2023-10-08T04:54:11;9.00;99.90
16700;DHT22;8466;52.286;21.124;2023-10-08T04:56:44;8.90;99.90
16700;DHT22;8466;52.286;21.124;2023-10-08T04:59:12;8.80;99.90
16700;DHT22;8466;52.286;21.124;2023-10-08T05:01:42;8.80;99.90
16700;DHT22;8466;52.286;21.124;2023-10-08T05:04:16;8.60;99.90
16700;DHT22;8466;52.286;21.124;2023-10-08T05:07:00;8.60;99.90
16700;DHT22;8466;52.286;21.124;2023-10-08T05:09:42;8.50;99.90
16700;DHT22;8466;52.286;21.124;2023-10-08T05:12:19;8.50;99.90
16700;DHT22;8466;52.286;21.124;2023-10-08T05:15:02;8.40;99.90
16700;DHT22;8466;52.286;21.124;2023-10-08T05:17:49;8.40;99.90
16700;DHT22;8466;52.286;21.124;2023-10-08T05:20:34;8.30;99.90
16700;DHT22;8466;52.286;21.124;2023-10-08T05:23:26;8.20;99.90
16700;DHT22;8466;52.286;21.124;2023-10-08T05:26:20;8.10;99.90
16700;DHT22;8466;52.286;21.124;2023-10-08T05:28:58;8.20;99.90
16700;DHT22;8466;52.286;21.124;2023-10-08T05:31:50;8.10;99.90
16700;DHT22;8466;52.286;21.124;2023-10-08T05:34:43;8.10;99.90
16700;DHT22;8466;52.286;21.124;2023-10-08T05:37:18;8.20;99.90
16700;DHT22;8466;52.286;21.124;2023-10-08T05:40:09;8.40;99.90
16700;DHT22;8466;52.286;21.124;2023-10-08T05:43:04;8.40;99.90
16700;DHT22;8466;52.286;21.124;2023-10-08T05:45:50;8.60;99.90
16700;DHT22;8466;52.286;21.124;2023-10-08T05:48:40;8.50;99.90
16700;DHT22;8466;52.286;21.124;2023-10-08T05:51:19;8.50;99.90
16700;DHT22;8466;52.286;21.124;2023-10-08T05:54:01;8.50;99.90
16700;DHT22;8466;52.286;21.124;2023-10-08T05:56:38;8.40;99.90
16700;DHT22;8466;52.286;21.124;2023-10-08T05:59:30;8.40;99.90
16700;DHT22;8466;52.286;21.124;2023-10-08T06:02:06;8.60;99.90
16700;DHT22;8466;52.286;21.124;2023-10-08T06:04:58;8.70;99.90
16700;DHT22;8466;52.286;21.124;2023-10-08T06:07:50;8.80;99.90
16700;DHT22;8466;52.286;21.124;2023-10-08T06:10:26;8.80;99.90
16700;DHT22;8466;52.286;21.124;2023-10-08T06:13:22;8.90;99.90
16700;DHT22;8466;52.286;21.124;2023-10-08T06:16:12;8.80;99.90
16700;DHT22;8466;52.286;21.124;2023-10-08T06:18:58;8.90;99.90
16700;DHT22;8466;52.286;21.124;2023-10-08T06:21:27;8.90;99.90
16700;DHT22;8466;52.286;21.124;2023-10-08T06:23:56;8.90;99.90
16700;DHT22;8466;52.286;21.124;2023-10-08T06:26:25;8.90;99.90
16700;DHT22;8466;52.286;21.124;2023-10-08T06:28:56;8.90;99.90
16700;DHT22;8466;52.286;21.124;2023-10-08T06:31:26;9.00;99.90
16700;DHT22;8466;52.286;21.124;2023-10-08T06:33:57;8.90;99.90
16700;DHT22;8466;52.286;21.124;2023-10-08T06:36:28;9.10;99.90
16700;DHT22;8466;52.286;21.124;2023-10-08T06:38:58;9.10;99.90
16700;DHT22;8466;52.286;21.124;2023-10-08T06:41:26;9.20;99.90
16700;DHT22;8466;52.286;21.124;2023-10-08T06:44:16;9.20;99.90
16700;DHT22;8466;52.286;21.124;2023-10-08T06:46:45;9.20;99.90
16700;DHT22;8466;52.286;21.124;2023-10-08T06:49:18;9.20;99.90
16700;DHT22;8466;52.286;21.124;2023-10-08T06:51:51;9.20;99.90
16700;DHT22;8466;52.286;21.124;2023-10-08T06:54:21;9.20;99.90
16700;DHT22;8466;52.286;21.124;2023-10-08T06:56:49;9.20;99.90
16700;DHT22;8466;52.286;21.124;2023-10-08T06:59:22;9.20;99.90
16700;DHT22;8466;52.286;21.124;2023-10-08T07:01:51;9.30;99.90
16700;DHT22;8466;52.286;21.124;2023-10-08T07:04:20;9.30;99.90
16700;DHT22;8466;52.286;21.124;2023-10-08T07:06:50;9.30;99.90
16700;DHT22;8466;52.286;21.124;2023-10-08T07:09:19;9.40;99.90
16700;DHT22;8466;52.286;21.124;2023-10-08T07:11:57;9.40;99.90
16700;DHT22;8466;52.286;21.124;2023-10-08T07:14:34;9.40;99.90
16700;DHT22;8466;52.286;21.124;2023-10-08T07:17:03;9.40;99.90
16700;DHT22;8466;52.286;21.124;2023-10-08T07:19:35;9.40;99.90
16700;DHT22;8466;52.286;21.124;2023-10-08T07:22:08;9.30;99.90
16700;DHT22;8466;52.286;21.124;2023-10-08T07:24:50;9.30;99.90
16700;DHT22;8466;52.286;21.124;2023-10-08T07:27:20;9.40;99.90
16700;DHT22;8466;52.286;21.124;2023-10-08T07:29:53;9.50;99.90
16700;DHT22;8466;52.286;21.124;2023-10-08T07:32:24;9.50;99.90
16700;DHT22;8466;52.286;21.124;2023-10-08T07:34:54;9.50;99.90
16700;DHT22;8466;52.286;21.124;2023-10-08T07:37:42;9.50;99.90
16700;DHT22;8466;52.286;21.124;2023-10-08T07:40:12;9.50;99.90
16700;DHT22;8466;52.286;21.124;2023-10-08T07:42:42;9.40;99.90
16700;DHT22;8466;52.286;21.124;2023-10-08T07:45:13;9.40;99.90
16700;DHT22;8466;52.286;21.124;2023-10-08T07:47:45;9.50;99.90
16700;DHT22;8466;52.286;21.124;2023-10-08T07:50:14;9.60;99.90
16700;DHT22;8466;52.286;21.124;2023-10-08T07:52:43;9.60;99.90
16700;DHT22;8466;52.286;21.124;2023-10-08T07:55:12;9.60;99.90
16700;DHT22;8466;52.286;21.124;2023-10-08T07:57:45;9.60;99.90
16700;DHT22;8466;52.286;21.124;2023-10-08T08:00:17;9.60;99.90
16700;DHT22;8466;52.286;21.124;2023-10-08T08:02:51;9.70;99.90
16700;DHT22;8466;52.286;21.124;2023-10-08T08:05:22;9.70;99.90
16700;DHT22;8466;52.286;21.124;2023-10-08T08:07:52;9.80;99.90
16700;DHT22;8466;52.286;21.124;2023-10-08T08:10:24;9.80;99.90
16700;DHT22;8466;52.286;21.124;2023-10-08T08:12:53;9.80;99.90
16700;DHT22;8466;52.286;21.124;2023-10-08T08:15:25;9.90;99.90
16700;DHT22;8466;52.286;21.124;2023-10-08T08:17:56;10.00;99.90
16700;DHT22;8466;52.286;21.124;2023-10-08T08:20:27;9.90;99.90
16700;DHT22;8466;52.286;21.124;2023-10-08T08:23:06;9.80;99.90
16700;DHT22;8466;52.286;21.124;2023-10-08T08:25:38;10.00;99.90
16700;DHT22;8466;52.286;21.124;2023-10-08T08:28:23;10.00;99.90
16700;DHT22;8466;52.286;21.124;2023-10-08T08:30:53;10.10;99.50
16700;DHT22;8466;52.286;21.124;2023-10-08T08:33:29;10.00;99.80
16700;DHT22;8466;52.286;21.124;2023-10-08T08:36:19;10.00;99.90
16700;DHT22;8466;52.286;21.124;2023-10-08T08:38:48;10.00;99.90
16700;DHT22;8466;52.286;21.124;2023-10-08T08:41:17;10.10;99.90
16700;DHT22;8466;52.286;21.124;2023-10-08T08:43:48;10.10;99.70
16700;DHT22;8466;52.286;21.124;2023-10-08T08:46:18;10.20;98.80
16700;DHT22;8466;52.286;21.124;2023-10-08T08:48:48;10.30;98.60
16700;DHT22;8466;52.286;21.124;2023-10-08T08:51:17;10.10;99.20
16700;DHT22;8466;52.286;21.124;2023-10-08T08:53:47;10.10;99.10
16700;DHT22;8466;52.286;21.124;2023-10-08T08:56:17;10.10;98.70
16700;DHT22;8466;52.286;21.124;2023-10-08T08:58:46;10.20;97.90
16700;DHT22;8466;52.286;21.124;2023-10-08T09:01:18;10.20;97.00
16700;DHT22;8466;52.286;21.124;2023-10-08T09:03:47;10.20;96.70
16700;DHT22;8466;52.286;21.124;2023-10-08T09:06:17;10.20;96.80
16700;DHT22;8466;52.286;21.124;2023-10-08T09:08:47;10.30;96.70
16700;DHT22;8466;52.286;21.124;2023-10-08T09:11:16;10.40;95.60
16700;DHT22;8466;52.286;21.124;2023-10-08T09:13:45;10.50;95.40
16700;DHT22;8466;52.286;21.124;2023-10-08T09:16:15;10.60;94.80
16700;DHT22;8466;52.286;21.124;2023-10-08T09:18:47;10.60;94.00
16700;DHT22;8466;52.286;21.124;2023-10-08T09:21:18;10.60;94.40
16700;DHT22;8466;52.286;21.124;2023-10-08T09:23:50;10.60;94.30
16700;DHT22;8466;52.286;21.124;2023-10-08T09:26:23;10.60;94.90
16700;DHT22;8466;52.286;21.124;2023-10-08T09:28:52;10.70;94.80
16700;DHT22;8466;52.286;21.124;2023-10-08T09:31:23;10.70;94.50
16700;DHT22;8466;52.286;21.124;2023-10-08T09:33:56;10.60;94.60
16700;DHT22;8466;52.286;21.124;2023-10-08T09:36:25;10.60;95.40
16700;DHT22;8466;52.286;21.124;2023-10-08T09:39:01;10.60;94.90
16700;DHT22;8466;52.286;21.124;2023-10-08T09:41:32;10.80;94.20
16700;DHT22;8466;52.286;21.124;2023-10-08T09:44:02;10.90;93.80
16700;DHT22;8466;52.286;21.124;2023-10-08T09:46:32;10.90;94.30
16700;DHT22;8466;52.286;21.124;2023-10-08T09:49:05;11.10;94.10
16700;DHT22;8466;52.286;21.124;2023-10-08T09:51:39;11.10;93.60
16700;DHT22;8466;52.286;21.124;2023-10-08T09:54:11;11.30;93.10
16700;DHT22;8466;52.286;21.124;2023-10-08T09:56:41;11.30;92.80
16700;DHT22;8466;52.286;21.124;2023-10-08T09:59:12;11.30;92.20
16700;DHT22;8466;52.286;21.124;2023-10-08T10:01:43;11.30;92.50
16700;DHT22;8466;52.286;21.124;2023-10-08T10:04:22;11.30;92.70
16700;DHT22;8466;52.286;21.124;2023-10-08T10:06:55;11.30;92.40
16700;DHT22;8466;52.286;21.124;2023-10-08T10:09:25;11.30;91.20
16700;DHT22;8466;52.286;21.124;2023-10-08T10:11:55;11.30;91.90
16700;DHT22;8466;52.286;21.124;2023-10-08T10:14:25;11.20;91.90
16700;DHT22;8466;52.286;21.124;2023-10-08T10:17:09;11.20;92.10
16700;DHT22;8466;52.286;21.124;2023-10-08T10:20:05;11.10;92.20
16700;DHT22;8466;52.286;21.124;2023-10-08T10:22:40;11.20;92.30
16700;DHT22;8466;52.286;21.124;2023-10-08T10:25:11;11.30;91.30
16700;DHT22;8466;52.286;21.124;2023-10-08T10:30:48;11.20;91.00
16700;DHT22;8466;52.286;21.124;2023-10-08T10:33:17;11.10;90.60
16700;DHT22;8466;52.286;21.124;2023-10-08T10:35:51;11.10;90.20
16700;DHT22;8466;52.286;21.124;2023-10-08T10:38:20;11.10;90.70
16700;DHT22;8466;52.286;21.124;2023-10-08T10:40:53;11.10;90.30
16700;DHT22;8466;52.286;21.124;2023-10-08T10:43:35;11.20;89.90
16700;DHT22;8466;52.286;21.124;2023-10-08T10:46:07;11.20;88.90
16700;DHT22;8466;52.286;21.124;2023-10-08T10:48:50;11.30;86.80
16700;DHT22;8466;52.286;21.124;2023-10-08T10:51:35;11.30;86.60
16700;DHT22;8466;52.286;21.124;2023-10-08T10:54:04;11.40;88.60
16700;DHT22;8466;52.286;21.124;2023-10-08T10:56:35;11.40;89.70
16700;DHT22;8466;52.286;21.124;2023-10-08T10:59:10;11.50;88.10
16700;DHT22;8466;52.286;21.124;2023-10-08T11:01:47;11.50;88.50
16700;DHT22;8466;52.286;21.124;2023-10-08T11:04:20;11.60;88.40
16700;DHT22;8466;52.286;21.124;2023-10-08T11:06:58;11.70;86.70
16700;DHT22;8466;52.286;21.124;2023-10-08T11:09:28;11.80;86.10
16700;DHT22;8466;52.286;21.124;2023-10-08T11:12:07;11.80;85.90
16700;DHT22;8466;52.286;21.124;2023-10-08T11:14:39;11.90;84.70
16700;DHT22;8466;52.286;21.124;2023-10-08T11:17:11;11.90;83.50
16700;DHT22;8466;52.286;21.124;2023-10-08T11:19:42;12.00;83.30
16700;DHT22;8466;52.286;21.124;2023-10-08T11:22:15;12.00;82.60
16700;DHT22;8466;52.286;21.124;2023-10-08T11:24:45;12.10;82.60
16700;DHT22;8466;52.286;21.124;2023-10-08T11:27:17;12.20;80.80
16700;DHT22;8466;52.286;21.124;2023-10-08T11:29:56;12.40;81.40
16700;DHT22;8466;52.286;21.124;2023-10-08T11:32:26;12.60;79.90
16700;DHT22;8466;52.286;21.124;2023-10-08T11:34:55;12.70;77.10
16700;DHT22;8466;52.286;21.124;2023-10-08T11:37:29;12.60;76.40
16700;DHT22;8466;52.286;21.124;2023-10-08T11:40:01;12.50;75.90
16700;DHT22;8466;52.286;21.124;2023-10-08T11:42:44;12.50;75.70
16700;DHT22;8466;52.286;21.124;2023-10-08T11:45:18;12.50;75.40
16700;DHT22;8466;52.286;21.124;2023-10-08T11:47:51;12.50;74.10
16700;DHT22;8466;52.286;21.124;2023-10-08T11:50:24;12.50;73.90
16700;DHT22;8466;52.286;21.124;2023-10-08T11:53:00;12.60;72.90
16700;DHT22;8466;52.286;21.124;2023-10-08T11:55:33;12.70;72.30
16700;DHT22;8466;52.286;21.124;2023-10-08T11:58:04;12.90;73.10
16700;DHT22;8466;52.286;21.124;2023-10-08T12:00:38;12.90;71.40
16700;DHT22;8466;52.286;21.124;2023-10-08T12:03:19;13.00;72.00
16700;DHT22;8466;52.286;21.124;2023-10-08T12:05:53;13.10;70.80
16700;DHT22;8466;52.286;21.124;2023-10-08T12:08:29;13.00;70.50
16700;DHT22;8466;52.286;21.124;2023-10-08T12:10:57;12.90;71.60
16700;DHT22;8466;52.286;21.124;2023-10-08T12:13:27;12.80;71.40
16700;DHT22;8466;52.286;21.124;2023-10-08T12:15:56;12.80;70.60
16700;DHT22;8466;52.286;21.124;2023-10-08T12:18:34;12.70;71.80
16700;DHT22;8466;52.286;21.124;2023-10-08T12:21:08;12.70;72.70
16700;DHT22;8466;52.286;21.124;2023-10-08T12:23:39;12.70;73.40
16700;DHT22;8466;52.286;21.124;2023-10-08T12:26:10;12.80;70.40
16700;DHT22;8466;52.286;21.124;2023-10-08T12:28:43;12.90;70.80
16700;DHT22;8466;52.286;21.124;2023-10-08T12:31:13;12.80;70.40
16700;DHT22;8466;52.286;21.124;2023-10-08T12:33:43;12.60;70.60
16700;DHT22;8466;52.286;21.124;2023-10-08T12:36:12;12.40;71.00
16700;DHT22;8466;52.286;21.124;2023-10-08T12:38:43;12.30;71.90
16700;DHT22;8466;52.286;21.124;2023-10-08T12:41:12;12.30;71.40
16700;DHT22;8466;52.286;21.124;2023-10-08T12:43:42;12.40;71.40
16700;DHT22;8466;52.286;21.124;2023-10-08T12:46:13;12.40;70.20
16700;DHT22;8466;52.286;21.124;2023-10-08T12:48:46;12.50;70.00
16700;DHT22;8466;52.286;21.124;2023-10-08T12:51:20;12.50;70.30
16700;DHT22;8466;52.286;21.124;2023-10-08T12:53:54;12.50;70.30
16700;DHT22;8466;52.286;21.124;2023-10-08T12:56:36;12.60;69.60
16700;DHT22;8466;52.286;21.124;2023-10-08T12:59:12;12.60;69.10
16700;DHT22;8466;52.286;21.124;2023-10-08T13:01:48;12.60;68.10
16700;DHT22;8466;52.286;21.124;2023-10-08T13:04:22;12.40;67.90
16700;DHT22;8466;52.286;21.124;2023-10-08T13:06:57;12.20;68.30
16700;DHT22;8466;52.286;21.124;2023-10-08T13:09:30;12.10;69.10
16700;DHT22;8466;52.286;21.124;2023-10-08T13:11:59;12.10;69.10
16700;DHT22;8466;52.286;21.124;2023-10-08T13:14:28;11.90;69.80
16700;DHT22;8466;52.286;21.124;2023-10-08T13:16:56;12.00;68.80
16700;DHT22;8466;52.286;21.124;2023-10-08T13:19:25;12.00;69.60
16700;DHT22;8466;52.286;21.124;2023-10-08T13:21:56;12.10;70.40
16700;DHT22;8466;52.286;21.124;2023-10-08T13:24:26;12.10;70.00
16700;DHT22;8466;52.286;21.124;2023-10-08T13:26:57;12.10;70.20
16700;DHT22;8466;52.286;21.124;2023-10-08T13:29:26;12.10;69.50
16700;DHT22;8466;52.286;21.124;2023-10-08T13:32:00;12.00;69.40
16700;DHT22;8466;52.286;21.124;2023-10-08T13:34:31;12.00;68.90
16700;DHT22;8466;52.286;21.124;2023-10-08T13:37:00;11.90;70.10
16700;DHT22;8466;52.286;21.124;2023-10-08T13:39:29;11.80;69.50
16700;DHT22;8466;52.286;21.124;2023-10-08T13:41:59;11.90;69.70
16700;DHT22;8466;52.286;21.124;2023-10-08T13:44:28;11.90;70.60
16700;DHT22;8466;52.286;21.124;2023-10-08T13:46:57;11.90;70.90
16700;DHT22;8466;52.286;21.124;2023-10-08T13:49:27;11.90;70.60
16700;DHT22;8466;52.286;21.124;2023-10-08T13:51:57;11.90;70.10
16700;DHT22;8466;52.286;21.124;2023-10-08T13:54:26;11.90;69.70
16700;DHT22;8466;52.286;21.124;2023-10-08T13:56:58;11.90;70.00
16700;DHT22;8466;52.286;21.124;2023-10-08T13:59:29;11.80;69.90
16700;DHT22;8466;52.286;21.124;2023-10-08T14:02:00;11.80;70.10
16700;DHT22;8466;52.286;21.124;2023-10-08T14:04:36;11.70;70.40
16700;DHT22;8466;52.286;21.124;2023-10-08T14:07:08;11.70;70.60
16700;DHT22;8466;52.286;21.124;2023-10-08T14:09:38;11.60;70.90
16700;DHT22;8466;52.286;21.124;2023-10-08T14:12:10;11.60;70.40
16700;DHT22;8466;52.286;21.124;2023-10-08T14:14:40;11.50;70.50
16700;DHT22;8466;52.286;21.124;2023-10-08T14:17:11;11.50;71.20
16700;DHT22;8466;52.286;21.124;2023-10-08T14:19:43;11.60;71.00
16700;DHT22;8466;52.286;21.124;2023-10-08T14:22:19;11.50;71.00
16700;DHT22;8466;52.286;21.124;2023-10-08T14:24:50;11.60;70.90
16700;DHT22;8466;52.286;21.124;2023-10-08T14:27:28;11.70;70.00
16700;DHT22;8466;52.286;21.124;2023-10-08T14:29:59;11.70;69.30
16700;DHT22;8466;52.286;21.124;2023-10-08T14:32:33;11.80;68.90
16700;DHT22;8466;52.286;21.124;2023-10-08T14:35:02;11.80;68.30
16700;DHT22;8466;52.286;21.124;2023-10-08T14:37:48;11.80;68.80
16700;DHT22;8466;52.286;21.124;2023-10-08T14:40:33;11.90;68.40
16700;DHT22;8466;52.286;21.124;2023-10-08T14:43:21;11.90;67.90
16700;DHT22;8466;52.286;21.124;2023-10-08T14:45:51;11.80;67.50
16700;DHT22;8466;52.286;21.124;2023-10-08T14:48:21;11.80;67.10
16700;DHT22;8466;52.286;21.124;2023-10-08T14:50:51;11.80;67.70
16700;DHT22;8466;52.286;21.124;2023-10-08T14:53:20;11.80;69.00
16700;DHT22;8466;52.286;21.124;2023-10-08T14:55:48;11.60;68.80
16700;DHT22;8466;52.286;21.124;2023-10-08T14:58:17;11.50;69.30
16700;DHT22;8466;52.286;21.124;2023-10-08T15:00:47;11.40;69.70
16700;DHT22;8466;52.286;21.124;2023-10-08T15:03:16;11.50;69.30
16700;DHT22;8466;52.286;21.124;2023-10-08T15:05:45;11.40;69.50
16700;DHT22;8466;52.286;21.124;2023-10-08T15:08:17;11.40;70.10
16700;DHT22;8466;52.286;21.124;2023-10-08T15:10:46;11.30;69.90
16700;DHT22;8466;52.286;21.124;2023-10-08T15:13:16;11.30;70.00
16700;DHT22;8466;52.286;21.124;2023-10-08T15:15:47;11.30;69.50
16700;DHT22;8466;52.286;21.124;2023-10-08T15:18:19;11.20;69.50
16700;DHT22;8466;52.286;21.124;2023-10-08T15:20:50;11.10;70.60
16700;DHT22;8466;52.286;21.124;2023-10-08T15:23:19;11.10;70.50
16700;DHT22;8466;52.286;21.124;2023-10-08T15:25:52;11.10;71.10
16700;DHT22;8466;52.286;21.124;2023-10-08T15:28:21;11.00;71.60
16700;DHT22;8466;52.286;21.124;2023-10-08T15:30:51;10.90;72.60
16700;DHT22;8466;52.286;21.124;2023-10-08T15:33:19;10.90;72.50
16700;DHT22;8466;52.286;21.124;2023-10-08T15:35:48;10.80;73.30
16700;DHT22;8466;52.286;21.124;2023-10-08T15:38:16;10.80;73.80
16700;DHT22;8466;52.286;21.124;2023-10-08T15:40:45;10.60;74.20
16700;DHT22;8466;52.286;21.124;2023-10-08T15:43:16;10.60;74.40
16700;DHT22;8466;52.286;21.124;2023-10-08T15:45:45;10.50;74.90
16700;DHT22;8466;52.286;21.124;2023-10-08T15:48:16;10.40;75.00
16700;DHT22;8466;52.286;21.124;2023-10-08T15:50:45;10.40;74.80
16700;DHT22;8466;52.286;21.124;2023-10-08T15:53:14;10.40;74.30
16700;DHT22;8466;52.286;21.124;2023-10-08T15:55:42;10.10;75.50
16700;DHT22;8466;52.286;21.124;2023-10-08T15:58:11;10.20;75.40
16700;DHT22;8466;52.286;21.124;2023-10-08T16:00:39;10.20;75.30
16700;DHT22;8466;52.286;21.124;2023-10-08T16:03:08;10.20;75.40
16700;DHT22;8466;52.286;21.124;2023-10-08T16:05:38;10.10;76.10
16700;DHT22;8466;52.286;21.124;2023-10-08T16:08:09;10.00;76.00
16700;DHT22;8466;52.286;21.124;2023-10-08T16:10:38;9.90;76.40
16700;DHT22;8466;52.286;21.124;2023-10-08T16:13:07;9.90;76.40
16700;DHT22;8466;52.286;21.124;2023-10-08T16:15:36;9.90;76.80